createdAt,value
2022-12-22T00:02:34.000Z,1.47
2022-12-22T00:05:28.163Z,1.50
2022-12-22T00:08:15.102Z,1.70
2022-12-22T00:11:02.169Z,1.50
2022-12-22T00:13:53.303Z,1.90
2022-12-22T00:16:39.192Z,1.60
2022-12-22T00:19:31.885Z,1.70
2022-12-22T00:22:22.198Z,2.03
2022-12-22T00:25:08.692Z,1.93
2022-12-22T00:27:55.797Z,1.83
2022-12-22T00:30:42.786Z,1.80
2022-12-22T00:33:32.003Z,2.00
2022-12-22T00:36:22.752Z,1.60
2022-12-22T00:39:09.722Z,1.73
2022-12-22T00:41:56.457Z,1.50
2022-12-22T00:44:41.952Z,1.90
2022-12-22T00:47:31.839Z,1.87
2022-12-22T00:50:19.182Z,1.60
2022-12-22T00:53:07.783Z,1.67
2022-12-22T00:55:55.481Z,1.40
2022-12-22T00:58:41.842Z,1.53
2022-12-22T01:01:29.227Z,1.33
2022-12-22T01:04:15.945Z,1.40
2022-12-22T01:07:01.780Z,1.67
2022-12-22T01:09:50.651Z,1.50
2022-12-22T01:12:42.595Z,1.60
2022-12-22T01:15:32.757Z,1.50
2022-12-22T01:18:19.623Z,1.13
2022-12-22T01:21:06.018Z,1.30
2022-12-22T01:23:52.317Z,1.50
2022-12-22T01:26:40.540Z,1.20
2022-12-22T01:29:26.023Z,1.33
2022-12-22T01:32:13.077Z,1.43
2022-12-22T01:34:59.339Z,1.70
2022-12-22T01:37:46.448Z,1.50
2022-12-22T01:40:35.181Z,1.67
2022-12-22T01:43:37.125Z,1.87
2022-12-22T01:46:37.911Z,1.10
2022-12-22T01:49:27.004Z,1.00
2022-12-22T01:52:14.019Z,1.27
2022-12-22T01:55:00.780Z,1.70
2022-12-22T01:57:47.603Z,1.63
2022-12-22T02:00:35.953Z,1.57
2022-12-22T02:03:23.281Z,1.30
2022-12-22T02:06:23.645Z,1.33
2022-12-22T02:09:19.553Z,1.30
2022-12-22T02:12:14.315Z,1.30
2022-12-22T02:15:04.191Z,1.67
2022-12-22T02:18:00.151Z,1.50
2022-12-22T02:20:59.691Z,1.40
2022-12-22T02:24:03.130Z,1.40
2022-12-22T02:26:53.211Z,1.40
2022-12-22T02:29:44.256Z,1.13
2022-12-22T02:32:30.514Z,1.03
2022-12-22T02:38:32.488Z,1.30
2022-12-22T02:41:32.379Z,1.40
2022-12-22T02:47:48.132Z,1.17
2022-12-22T02:50:40.357Z,1.23
2022-12-22T02:53:28.216Z,1.30
2022-12-22T02:56:19.337Z,1.43
2022-12-22T02:59:06.774Z,1.40
2022-12-22T03:01:55.477Z,1.80
2022-12-22T03:04:41.879Z,1.20
2022-12-22T03:07:28.128Z,1.10
2022-12-22T03:10:14.415Z,1.03
2022-12-22T03:13:00.686Z,1.37
2022-12-22T03:15:47.367Z,1.50
2022-12-22T03:18:35.286Z,1.47
2022-12-22T03:24:21.485Z,1.30
2022-12-22T03:26:51.114Z,1.23
2022-12-22T03:29:19.572Z,1.30
2022-12-22T03:31:49.940Z,1.30
2022-12-22T03:34:21.817Z,1.30
2022-12-22T03:36:50.278Z,1.27
2022-12-22T03:39:19.943Z,1.00
2022-12-22T03:42:06.610Z,1.10
2022-12-22T03:44:52.832Z,1.30
2022-12-22T03:47:22.240Z,1.00
2022-12-22T03:49:54.155Z,1.00
2022-12-22T03:52:24.398Z,1.17
2022-12-22T03:54:55.188Z,1.17
2022-12-22T03:57:24.959Z,1.23
2022-12-22T03:59:54.827Z,1.10
2022-12-22T04:02:23.638Z,1.50
2022-12-22T04:04:55.329Z,1.00
2022-12-22T04:07:25.041Z,1.10
2022-12-22T04:10:11.260Z,1.50
2022-12-22T04:12:58.017Z,1.30
2022-12-22T04:15:32.059Z,1.20
2022-12-22T04:18:02.404Z,1.03
2022-12-22T04:20:34.253Z,1.20
2022-12-22T04:23:04.083Z,1.40
2022-12-22T04:25:32.878Z,1.50
2022-12-22T04:28:01.873Z,1.20
2022-12-22T04:30:31.120Z,1.20
2022-12-22T04:33:06.523Z,1.10
2022-12-22T04:35:38.250Z,1.27
2022-12-22T04:38:07.559Z,1.23
2022-12-22T04:40:37.553Z,1.17
2022-12-22T04:43:07.476Z,1.00
2022-12-22T04:45:38.236Z,1.23
2022-12-22T04:48:08.571Z,1.40
2022-12-22T04:50:40.107Z,1.10
2022-12-22T04:53:08.704Z,1.00
2022-12-22T04:55:40.814Z,0.97
2022-12-22T04:58:24.243Z,1.20
2022-12-22T05:00:53.714Z,1.30
2022-12-22T05:03:22.716Z,1.13
2022-12-22T05:09:07.590Z,0.97
2022-12-22T05:11:36.000Z,1.10
2022-12-22T05:14:08.667Z,0.87
2022-12-22T05:16:41.540Z,1.10
2022-12-22T05:19:12.345Z,0.90
2022-12-22T05:21:44.414Z,1.00
2022-12-22T05:24:22.575Z,1.07
2022-12-22T05:26:59.446Z,1.20
2022-12-22T05:29:43.734Z,1.03
2022-12-22T05:32:15.011Z,1.10
2022-12-22T05:34:46.346Z,1.20
2022-12-22T05:37:15.248Z,1.40
2022-12-22T05:39:48.036Z,1.30
2022-12-22T05:42:35.919Z,1.00
2022-12-22T05:45:06.685Z,0.63
2022-12-22T05:47:37.753Z,1.00
2022-12-22T05:50:08.876Z,1.00
2022-12-22T05:52:36.931Z,0.73
2022-12-22T05:55:07.738Z,0.90
2022-12-22T05:57:35.869Z,0.90
2022-12-22T06:00:05.234Z,1.23
2022-12-22T06:02:33.491Z,0.83
2022-12-22T06:05:01.647Z,0.90
2022-12-22T06:07:29.640Z,0.90
2022-12-22T06:09:57.661Z,1.10
2022-12-22T06:12:26.965Z,1.00
2022-12-22T06:14:56.104Z,1.20
2022-12-22T06:17:24.545Z,0.90
2022-12-22T06:19:52.791Z,1.17
2022-12-22T06:22:20.965Z,0.90
2022-12-22T06:25:04.121Z,0.80
2022-12-22T06:27:38.072Z,0.90
2022-12-22T06:30:13.595Z,0.87
2022-12-22T06:32:57.720Z,0.73
2022-12-22T06:35:27.611Z,1.10
2022-12-22T06:38:00.697Z,1.00
2022-12-22T06:40:32.141Z,0.97
2022-12-22T06:43:11.027Z,0.77
2022-12-22T06:45:41.053Z,1.07
2022-12-22T06:48:10.861Z,1.00
2022-12-22T06:50:39.581Z,0.90
2022-12-22T06:53:08.992Z,1.10
2022-12-22T06:55:37.737Z,1.00
2022-12-22T06:58:08.037Z,1.13
2022-12-22T07:00:36.843Z,0.93
2022-12-22T07:03:06.028Z,1.07
2022-12-22T07:05:36.656Z,0.93
2022-12-22T07:08:08.825Z,1.20
2022-12-22T07:11:07.011Z,1.13
2022-12-22T07:13:37.519Z,0.90
2022-12-22T07:16:10.932Z,1.20
2022-12-22T07:18:43.005Z,1.20
2022-12-22T07:21:17.742Z,0.97
2022-12-22T07:23:47.820Z,0.90
2022-12-22T07:26:18.525Z,0.73
2022-12-22T07:28:51.298Z,0.80
2022-12-22T07:31:27.274Z,0.80
2022-12-22T07:34:05.083Z,0.83
2022-12-22T07:39:11.816Z,1.00
2022-12-22T07:42:03.025Z,1.07
2022-12-22T07:44:36.219Z,1.23
2022-12-22T07:47:06.036Z,1.00
2022-12-22T07:49:52.874Z,0.90
2022-12-22T07:52:25.549Z,1.33
2022-12-22T07:54:56.327Z,1.07
2022-12-22T07:57:39.993Z,1.30
2022-12-22T08:00:27.047Z,1.57
2022-12-22T08:05:54.422Z,1.70
2022-12-22T08:08:25.570Z,1.20
2022-12-22T08:10:55.221Z,1.10
2022-12-22T08:13:25.358Z,1.47
2022-12-22T08:16:06.094Z,1.10
2022-12-22T08:18:37.708Z,1.20
2022-12-22T08:21:10.396Z,1.27
2022-12-22T08:23:40.621Z,1.17
2022-12-22T08:26:14.143Z,1.00
2022-12-22T08:28:50.358Z,1.50
2022-12-22T08:31:29.636Z,1.00
2022-12-22T08:34:01.378Z,0.90
2022-12-22T08:36:33.209Z,1.10
2022-12-22T08:39:04.299Z,1.03
2022-12-22T08:41:51.683Z,1.07
2022-12-22T08:44:24.716Z,1.20
2022-12-22T08:47:12.996Z,1.10
2022-12-22T08:49:46.720Z,1.07
2022-12-22T08:52:18.744Z,1.10
2022-12-22T08:54:47.786Z,1.40
2022-12-22T08:57:16.329Z,1.23
2022-12-22T08:59:49.767Z,1.27
2022-12-22T09:02:21.995Z,0.97
2022-12-22T09:04:55.821Z,1.07
2022-12-22T09:07:25.347Z,0.97
2022-12-22T09:09:59.834Z,1.13
2022-12-22T09:15:33.270Z,1.20
2022-12-22T09:18:39.561Z,1.20
2022-12-22T09:21:07.759Z,1.07
2022-12-22T09:23:35.901Z,1.20
2022-12-22T09:29:22.503Z,1.20
2022-12-22T09:32:05.718Z,1.57
2022-12-22T09:41:37.863Z,1.20
2022-12-22T09:47:35.368Z,1.00
2022-12-22T09:50:14.642Z,1.10
2022-12-22T09:53:12.870Z,1.20
2022-12-22T09:59:41.569Z,0.90
2022-12-22T10:02:38.738Z,1.10
2022-12-22T10:13:53.870Z,1.07
2022-12-22T10:16:50.873Z,1.30
2022-12-22T10:19:23.283Z,1.30
2022-12-22T10:24:37.856Z,0.90
2022-12-22T10:27:11.227Z,0.90
2022-12-22T10:29:41.636Z,1.10
2022-12-22T10:32:21.065Z,0.87
2022-12-22T10:35:05.144Z,1.00
2022-12-22T10:37:34.996Z,1.30
2022-12-22T10:40:23.419Z,1.00
2022-12-22T10:43:01.181Z,1.20
2022-12-22T10:45:37.512Z,1.20
2022-12-22T10:48:09.721Z,1.00
2022-12-22T10:50:47.809Z,1.20
2022-12-22T10:53:17.686Z,0.90
2022-12-22T10:55:46.289Z,1.20
2022-12-22T10:58:19.250Z,1.00
2022-12-22T11:01:03.309Z,1.33
2022-12-22T11:03:34.836Z,1.03
2022-12-22T11:06:03.551Z,1.00
2022-12-22T11:08:34.576Z,1.63
2022-12-22T11:11:09.059Z,1.13
2022-12-22T11:13:54.774Z,1.30
2022-12-22T11:16:31.672Z,1.53
2022-12-22T11:19:18.426Z,0.83
2022-12-22T11:21:53.677Z,1.43
2022-12-22T11:24:36.538Z,1.30
2022-12-22T11:27:21.366Z,1.00
2022-12-22T11:30:05.144Z,1.50
2022-12-22T11:32:51.689Z,1.80
2022-12-22T11:35:30.022Z,0.97
2022-12-22T11:38:06.012Z,1.20
2022-12-22T11:55:01.971Z,1.07
2022-12-22T11:57:38.441Z,1.53
2022-12-22T12:00:10.945Z,1.47
2022-12-22T12:03:17.383Z,1.30
2022-12-22T12:06:08.427Z,1.50
2022-12-22T12:08:47.701Z,1.00
2022-12-22T12:11:26.505Z,1.40
2022-12-22T12:17:11.352Z,1.30
2022-12-22T12:26:49.331Z,1.00
2022-12-22T12:29:22.589Z,1.67
2022-12-22T12:32:01.292Z,1.30
2022-12-22T12:34:59.621Z,1.33
2022-12-22T12:37:31.658Z,1.90
2022-12-22T12:40:08.996Z,2.07
2022-12-22T12:42:42.440Z,1.60
2022-12-22T12:45:35.995Z,1.20
2022-12-22T12:48:40.234Z,1.17
2022-12-22T12:51:45.013Z,1.20
2022-12-22T12:54:42.958Z,1.20
2022-12-22T12:57:56.141Z,1.50
2022-12-22T13:00:56.979Z,1.80
2022-12-22T13:07:02.840Z,0.70
2022-12-22T13:09:50.316Z,1.23
2022-12-22T13:12:41.968Z,1.20
2022-12-22T13:15:32.426Z,1.20
2022-12-22T13:18:04.683Z,1.83
2022-12-22T13:20:36.777Z,1.23
2022-12-22T13:23:12.896Z,1.80
2022-12-22T13:25:45.242Z,1.43
2022-12-22T13:28:20.733Z,1.90
2022-12-22T13:30:50.057Z,0.90
2022-12-22T13:33:25.317Z,1.10
2022-12-22T13:35:58.873Z,1.60
2022-12-22T13:38:32.139Z,1.40
2022-12-22T13:41:01.783Z,1.20
2022-12-22T13:43:31.773Z,1.87
2022-12-22T13:46:02.415Z,2.03
2022-12-22T13:48:43.959Z,2.03
2022-12-22T13:51:19.316Z,1.33
2022-12-22T13:56:41.837Z,1.30
2022-12-22T13:59:23.179Z,1.43
2022-12-22T14:01:52.843Z,1.47
2022-12-22T14:04:23.122Z,2.00
2022-12-22T14:06:51.517Z,1.87
2022-12-22T14:09:21.786Z,1.40
2022-12-22T14:11:53.140Z,2.20
2022-12-22T14:14:25.793Z,2.23
2022-12-22T14:16:57.046Z,1.70
2022-12-22T14:19:27.778Z,1.60
2022-12-22T14:22:08.518Z,1.73
2022-12-22T14:24:42.732Z,1.80
2022-12-22T14:27:19.980Z,2.17
2022-12-22T14:29:48.349Z,1.90
2022-12-22T14:32:36.307Z,1.60
2022-12-22T14:35:06.497Z,1.90
2022-12-22T14:37:34.886Z,1.73
2022-12-22T14:40:03.016Z,1.50
2022-12-22T14:42:32.377Z,1.80
2022-12-22T14:45:00.853Z,1.67
2022-12-22T14:47:29.344Z,2.80
2022-12-22T14:50:00.432Z,2.13
2022-12-22T14:52:37.785Z,2.90
2022-12-22T14:55:08.559Z,2.10
2022-12-22T14:57:39.288Z,1.87
2022-12-22T15:00:27.768Z,2.23
2022-12-22T15:02:57.852Z,2.00
2022-12-22T15:05:29.195Z,1.77
2022-12-22T15:08:06.820Z,2.20
2022-12-22T15:10:39.913Z,1.60
2022-12-22T15:13:13.820Z,2.20
2022-12-22T15:15:42.160Z,2.13
2022-12-22T15:18:15.484Z,1.83
2022-12-22T15:20:43.522Z,2.13
2022-12-22T15:23:17.455Z,2.00
2022-12-22T15:25:46.117Z,1.90
2022-12-22T15:28:20.794Z,2.40
2022-12-22T15:30:49.011Z,1.93
2022-12-22T15:33:18.872Z,1.87
2022-12-22T15:35:47.655Z,1.80
2022-12-22T15:38:18.819Z,1.83
2022-12-22T15:40:47.199Z,2.27
2022-12-22T15:43:55.232Z,1.73
2022-12-22T15:46:06.967Z,2.00
2022-12-22T15:48:37.059Z,2.33
2022-12-22T15:51:08.565Z,2.10
2022-12-22T15:53:38.846Z,2.07
2022-12-22T15:56:11.160Z,2.10
2022-12-22T15:58:42.391Z,1.47
2022-12-22T16:01:14.568Z,2.13
2022-12-22T16:03:43.045Z,1.70
2022-12-22T16:06:14.677Z,3.00
2022-12-22T16:08:51.039Z,2.10
2022-12-22T16:11:20.585Z,1.50
2022-12-22T16:13:49.666Z,1.83
2022-12-22T16:16:18.021Z,1.87
2022-12-22T16:18:46.933Z,1.70
2022-12-22T16:21:19.986Z,1.43
2022-12-22T16:24:01.175Z,2.30
2022-12-22T16:26:30.090Z,1.43
2022-12-22T16:28:59.416Z,1.40
2022-12-22T16:31:28.221Z,1.57
2022-12-22T16:33:57.033Z,1.83
2022-12-22T16:36:25.132Z,1.50
2022-12-22T16:38:55.151Z,1.43
2022-12-22T16:41:33.627Z,2.07
2022-12-22T16:44:06.002Z,1.67
2022-12-22T16:46:38.261Z,1.50
2022-12-22T16:49:10.432Z,1.93
2022-12-22T16:51:44.443Z,1.80
2022-12-22T16:54:15.914Z,2.53
2022-12-22T16:56:47.648Z,1.87
2022-12-22T17:02:20.838Z,1.67
2022-12-22T17:04:51.122Z,2.23
2022-12-22T17:07:20.128Z,2.00
2022-12-22T17:09:53.133Z,1.97
2022-12-22T17:12:28.141Z,1.87
2022-12-22T17:14:59.299Z,1.77
2022-12-22T17:17:34.057Z,1.57
2022-12-22T17:20:07.417Z,1.87
2022-12-22T17:22:36.726Z,1.50
2022-12-22T17:25:08.637Z,1.80
2022-12-22T17:27:38.146Z,1.70
2022-12-22T17:30:08.167Z,1.30
2022-12-22T17:32:39.228Z,1.53
2022-12-22T17:35:07.910Z,1.90
2022-12-22T17:37:36.782Z,1.37
2022-12-22T17:40:08.065Z,1.43
2022-12-22T17:42:36.623Z,1.40
2022-12-22T17:45:05.921Z,2.40
2022-12-22T17:47:42.465Z,1.67
2022-12-22T17:50:15.751Z,1.90
2022-12-22T17:52:45.872Z,1.77
2022-12-22T17:55:49.958Z,1.80
2022-12-22T17:58:15.555Z,1.63
2022-12-22T18:00:44.659Z,1.60
2022-12-22T18:03:14.329Z,2.23
2022-12-22T18:05:44.963Z,2.50
2022-12-22T18:08:17.555Z,1.63
2022-12-22T18:10:50.030Z,2.47
2022-12-22T18:13:27.444Z,1.87
2022-12-22T18:16:03.908Z,1.77
2022-12-22T18:18:33.233Z,1.73
2022-12-22T18:21:10.052Z,1.67
2022-12-22T18:23:46.168Z,2.53
2022-12-22T18:26:26.323Z,1.70
2022-12-22T18:28:56.044Z,2.00
2022-12-22T18:31:25.773Z,2.23
2022-12-22T18:34:03.320Z,1.80
2022-12-22T18:36:34.529Z,1.60
2022-12-22T18:39:11.884Z,1.57
2022-12-22T18:41:50.709Z,1.60
2022-12-22T18:44:25.087Z,1.90
2022-12-22T18:46:57.043Z,1.87
2022-12-22T18:49:28.888Z,2.07
2022-12-22T18:51:59.696Z,2.13
2022-12-22T18:54:41.144Z,1.97
2022-12-22T18:57:31.047Z,1.90
2022-12-22T19:00:18.020Z,2.00
2022-12-22T19:02:50.764Z,2.00
2022-12-22T19:05:22.157Z,1.70
2022-12-22T19:07:52.429Z,2.40
2022-12-22T19:10:31.658Z,1.87
2022-12-22T19:13:11.592Z,2.27
2022-12-22T19:15:44.869Z,2.63
2022-12-22T19:18:26.481Z,1.80
2022-12-22T19:20:59.092Z,1.87
2022-12-22T19:23:28.118Z,2.00
2022-12-22T19:26:08.454Z,2.77
2022-12-22T19:28:48.367Z,2.17
2022-12-22T19:31:25.065Z,2.20
2022-12-22T19:33:54.142Z,1.93
2022-12-22T19:36:31.511Z,2.33
2022-12-22T19:39:05.761Z,1.60
2022-12-22T19:41:41.851Z,2.10
2022-12-22T19:44:19.686Z,2.70
2022-12-22T19:46:48.790Z,2.60
2022-12-22T19:49:18.980Z,2.40
2022-12-22T19:51:47.724Z,2.40
2022-12-22T19:54:16.292Z,1.63
2022-12-22T19:56:48.373Z,1.80
2022-12-22T19:59:37.564Z,1.90
2022-12-22T20:02:24.822Z,1.67
2022-12-22T20:04:53.685Z,1.57
2022-12-22T20:07:25.113Z,1.73
2022-12-22T20:09:53.889Z,1.97
2022-12-22T20:12:31.902Z,2.17
2022-12-22T20:15:07.027Z,1.60
2022-12-22T20:20:38.812Z,1.83
2022-12-22T20:23:15.905Z,1.63
2022-12-22T20:25:47.289Z,2.10
2022-12-22T20:28:19.938Z,2.03
2022-12-22T20:30:52.611Z,2.03
2022-12-22T20:33:22.622Z,1.53
2022-12-22T20:36:04.378Z,1.40
2022-12-22T20:38:52.835Z,1.77
2022-12-22T20:44:11.491Z,1.67
2022-12-22T20:46:45.010Z,1.60
2022-12-22T20:49:33.226Z,1.10
2022-12-22T20:52:02.726Z,1.40
2022-12-22T20:54:34.756Z,1.30
2022-12-22T20:57:08.374Z,1.50
2022-12-22T21:17:23.771Z,1.93
2022-12-22T21:19:55.008Z,1.73
2022-12-22T21:25:05.532Z,1.30
2022-12-22T21:30:40.150Z,1.30
2022-12-22T21:33:08.580Z,1.57
2022-12-22T21:35:38.448Z,1.40
2022-12-22T21:38:08.273Z,1.57
2022-12-22T21:40:36.329Z,1.43
2022-12-22T21:43:05.217Z,1.60
2022-12-22T21:45:40.979Z,1.30
2022-12-22T21:48:13.050Z,1.30
2022-12-22T21:50:41.715Z,1.50
2022-12-22T21:53:10.544Z,1.40
2022-12-22T21:55:41.466Z,1.50
2022-12-22T21:58:13.648Z,1.50
2022-12-22T22:00:48.671Z,1.60
2022-12-22T22:03:17.527Z,1.33
2022-12-22T22:05:48.141Z,1.37
2022-12-22T22:08:16.509Z,1.20
2022-12-22T22:10:45.319Z,1.60
2022-12-22T22:13:16.127Z,1.77
2022-12-22T22:15:46.780Z,1.20
2022-12-22T22:18:17.491Z,1.50
2022-12-22T22:20:46.422Z,0.87
2022-12-22T22:23:15.959Z,1.27
2022-12-22T22:25:44.409Z,1.47
2022-12-22T22:28:12.954Z,1.33
2022-12-22T22:30:42.061Z,1.40
2022-12-22T22:33:12.540Z,1.13
2022-12-22T22:35:41.740Z,1.10
2022-12-22T22:38:12.470Z,1.10
2022-12-22T22:40:43.449Z,1.20
2022-12-22T22:43:11.760Z,1.83
2022-12-22T22:45:40.283Z,1.47
2022-12-22T22:48:11.186Z,1.47
2022-12-22T22:50:43.288Z,1.03
2022-12-22T22:53:11.363Z,1.23
2022-12-22T22:55:39.621Z,1.10
2022-12-22T22:58:11.383Z,1.13
2022-12-22T23:00:39.926Z,1.37
2022-12-22T23:03:08.571Z,1.50
2022-12-22T23:05:37.118Z,1.00
2022-12-22T23:08:07.103Z,1.07
2022-12-22T23:10:41.353Z,1.03
2022-12-22T23:13:10.242Z,0.93
2022-12-22T23:15:38.681Z,1.23
2022-12-22T23:18:08.060Z,0.83
2022-12-22T23:20:36.580Z,1.30
2022-12-22T23:23:04.860Z,1.10
2022-12-22T23:25:34.694Z,0.97
2022-12-22T23:28:02.991Z,1.30
2022-12-22T23:30:31.019Z,1.00
2022-12-22T23:32:59.060Z,1.20
2022-12-22T23:35:27.461Z,0.90
2022-12-22T23:37:56.052Z,0.70
2022-12-22T23:40:51.217Z,1.10
2022-12-22T23:43:14.426Z,0.70
2022-12-22T23:45:42.801Z,0.80
2022-12-22T23:48:11.510Z,0.80
2022-12-22T23:50:39.856Z,0.90
2022-12-22T23:53:07.959Z,0.97
2022-12-22T23:55:36.020Z,0.83
2022-12-22T23:58:04.647Z,0.90
